Time;durP1;ratioP1;P1;durP2;ratioP2;P2;SDS_P1;SDS_P2;PMS_P1;PMS_P2;Temp;Humidity;BMP_temperature;BMP_pressure;BME280_temperature;BME280_humidity;BME280_pressure;Samples;Min_cycle;Max_cycle;Signal;HPM_P1;HPM_P2
2023/09/09 00:01:25;;;;;;;10.20;8.00;;;21.50;99.90;;;;;;5072744;28;20177;-50
2023/09/09 00:03:51;;;;;;;9.10;7.97;;;21.60;99.90;;;;;;5072370;28;20213;-49
2023/09/09 00:06:17;;;;;;;9.90;8.25;;;;;;;;;;5072393;28;20166;-45
2023/09/09 00:08:43;;;;;;;11.27;7.82;;;21.60;99.90;;;;;;5072986;28;20166;-48
2023/09/09 00:11:09;;;;;;;9.40;8.18;;;21.50;99.90;;;;;;5072448;28;20256;-47
2023/09/09 00:13:35;;;;;;;9.05;8.15;;;21.50;99.90;;;;;;5072745;28;20215;-47
2023/09/09 00:16:01;;;;;;;11.52;8.63;;;21.50;99.90;;;;;;5072404;28;20166;-48
2023/09/09 00:18:26;;;;;;;12.50;8.73;;;21.50;99.90;;;;;;5072395;28;20176;-46
2023/09/09 00:20:52;;;;;;;8.85;7.95;;;21.50;99.90;;;;;;5072570;28;20170;-45
2023/09/09 00:23:17;;;;;;;13.43;9.07;;;21.40;99.90;;;;;;5072184;28;20169;-45
2023/09/09 00:25:43;;;;;;;9.93;8.93;;;21.40;99.90;;;;;;5072019;28;20227;-45
2023/09/09 00:28:13;;;;;;;9.43;8.52;;;21.40;99.90;;;;;;5072167;28;20170;-45
2023/09/09 00:30:39;;;;;;;9.18;8.18;;;21.40;99.90;;;;;;5072132;28;20650;-46
2023/09/09 00:33:07;;;;;;;10.98;9.05;;;21.40;99.90;;;;;;5072066;28;20557;-45
2023/09/09 00:35:34;;;;;;;9.35;8.40;;;21.40;99.90;;;;;;5072063;28;20249;-46
2023/09/09 00:38:00;;;;;;;12.43;9.18;;;21.40;99.90;;;;;;5072069;28;20644;-45
2023/09/09 00:40:26;;;;;;;11.63;8.93;;;21.40;99.90;;;;;;5070729;28;20166;-45
2023/09/09 00:42:51;;;;;;;11.27;8.50;;;21.30;99.90;;;;;;5071927;28;20176;-46
2023/09/09 00:45:17;;;;;;;10.30;9.25;;;21.20;99.90;;;;;;5071654;28;20263;-46
2023/09/09 00:47:44;;;;;;;10.20;8.90;;;21.20;99.90;;;;;;5072347;28;20694;-46
2023/09/09 00:50:11;;;;;;;9.57;8.55;;;21.20;99.90;;;;;;5071781;28;20628;-45
2023/09/09 00:52:41;;;;;;;13.90;9.40;;;21.10;99.90;;;;;;5071788;28;20162;-46
2023/09/09 00:55:09;;;;;;;17.33;10.88;;;21.10;99.90;;;;;;5071703;28;20177;-46
2023/09/09 00:57:35;;;;;;;14.82;11.00;;;21.10;99.90;;;;;;5071971;28;20593;-45
2023/09/09 01:00:04;;;;;;;12.95;11.57;;;21.20;99.90;;;;;;5071665;28;20200;-45
2023/09/09 01:02:30;;;;;;;17.83;13.40;;;21.20;99.90;;;;;;5071875;28;20173;-46
2023/09/09 01:04:59;;;;;;;13.70;12.30;;;21.10;99.90;;;;;;5071492;28;20698;-45
2023/09/09 01:07:26;;;;;;;16.92;12.48;;;21.20;99.90;;;;;;5071540;28;20174;-45
2023/09/09 01:09:52;;;;;;;15.35;12.57;;;21.10;99.90;;;;;;5071592;28;20174;-45
2023/09/09 01:12:18;;;;;;;17.23;12.05;;;21.10;99.90;;;;;;5071750;28;20712;-47
2023/09/09 01:14:43;;;;;;;14.57;12.23;;;21.10;99.90;;;;;;5072119;28;20208;-45
2023/09/09 01:17:10;;;;;;;15.55;12.23;;;21.10;99.90;;;;;;5071578;28;20184;-45
2023/09/09 01:19:35;;;;;;;15.13;11.88;;;21.10;99.90;;;;;;5071829;28;20252;-47
2023/09/09 01:22:08;;;;;;;13.93;11.75;;;21.10;99.90;;;;;;5071526;28;20629;-46
2023/09/09 01:24:34;;;;;;;14.65;11.48;;;21.00;99.90;;;;;;5071353;28;20562;-46
2023/09/09 01:27:00;;;;;;;13.25;11.32;;;;;;;;;;5071364;28;20158;-49
2023/09/09 01:29:26;;;;;;;14.43;11.75;;;20.80;99.90;;;;;;5071284;28;20169;-47
2023/09/09 01:31:51;;;;;;;12.95;11.60;;;20.80;99.90;;;;;;5071368;28;20651;-47
2023/09/09 01:34:17;;;;;;;15.50;10.70;;;20.80;99.90;;;;;;5071165;28;20516;-45
2023/09/09 01:36:42;;;;;;;12.70;11.27;;;20.80;99.90;;;;;;5073735;28;20661;-46
2023/09/09 01:39:08;;;;;;;12.02;10.75;;;20.70;99.90;;;;;;5075648;28;20244;-46
2023/09/09 01:41:33;;;;;;;12.77;11.10;;;20.60;99.90;;;;;;5075355;28;20223;-46
2023/09/09 01:43:59;;;;;;;13.70;11.35;;;20.60;99.90;;;;;;5075204;28;20280;-46
2023/09/09 01:46:24;;;;;;;11.80;10.55;;;20.60;99.90;;;;;;5075550;28;20170;-46
2023/09/09 01:48:50;;;;;;;11.77;10.63;;;20.60;99.90;;;;;;5075540;28;20188;-46
2023/09/09 01:51:16;;;;;;;11.90;10.52;;;;;;;;;;5075605;28;20170;-46
2023/09/09 01:53:42;;;;;;;11.25;9.98;;;20.60;99.90;;;;;;5075582;28;20166;-46
2023/09/09 01:56:07;;;;;;;12.05;10.75;;;20.60;99.90;;;;;;5075095;28;20177;-46
2023/09/09 01:58:33;;;;;;;18.77;11.40;;;20.50;99.90;;;;;;5073783;28;20166;-46
2023/09/09 02:00:58;;;;;;;15.18;11.38;;;20.40;99.90;;;;;;5075001;28;20170;-46
2023/09/09 02:03:25;;;;;;;15.45;11.00;;;20.40;99.90;;;;;;5074926;28;20166;-46
2023/09/09 02:05:50;;;;;;;13.23;11.32;;;20.50;99.90;;;;;;5074911;28;20197;-46
2023/09/09 02:08:17;;;;;;;14.25;11.27;;;;;;;;;;5074858;28;20247;-46
2023/09/09 02:10:42;;;;;;;16.50;11.77;;;20.40;99.90;;;;;;5075241;28;20177;-46
2023/09/09 02:13:08;;;;;;;14.23;12.15;;;20.50;99.90;;;;;;5074774;28;20166;-46
2023/09/09 02:15:34;;;;;;;12.60;11.40;;;20.40;99.90;;;;;;5075218;28;20207;-46
2023/09/09 02:17:59;;;;;;;16.25;10.68;;;20.30;99.90;;;;;;5074728;28;20723;-46
2023/09/09 02:20:25;;;;;;;15.82;11.35;;;20.30;99.90;;;;;;5074921;28;20170;-46
2023/09/09 02:22:50;;;;;;;12.98;10.43;;;20.30;99.90;;;;;;5074803;28;20268;-46
2023/09/09 02:25:16;;;;;;;12.57;10.45;;;;;;;;;;5074457;28;20566;-45
2023/09/09 02:27:42;;;;;;;14.43;10.90;;;20.30;99.90;;;;;;5075037;28;20173;-46
2023/09/09 02:30:08;;;;;;;13.45;11.52;;;20.30;99.90;;;;;;5074671;28;20166;-46
2023/09/09 02:32:34;;;;;;;13.75;11.07;;;20.20;99.90;;;;;;5074392;28;20162;-46
2023/09/09 02:34:59;;;;;;;13.02;11.63;;;20.20;99.90;;;;;;5074615;28;20173;-46
2023/09/09 02:37:26;;;;;;;12.52;11.15;;;20.20;99.90;;;;;;5074274;28;20635;-46
2023/09/09 02:39:52;;;;;;;13.85;12.02;;;20.10;99.90;;;;;;5074289;28;20158;-46
2023/09/09 02:42:22;;;;;;;13.68;10.43;;;20.00;99.90;;;;;;5074213;28;20162;-50
2023/09/09 02:44:52;;;;;;;17.05;10.50;;;20.00;99.90;;;;;;5074059;28;20221;-49
2023/09/09 02:47:19;;;;;;;12.15;10.77;;;20.00;99.90;;;;;;5072636;28;20535;-49
2023/09/09 02:49:44;;;;;;;16.35;11.07;;;20.00;99.90;;;;;;5074468;28;20315;-50
2023/09/09 02:52:10;;;;;;;13.35;10.73;;;20.00;99.90;;;;;;5074100;28;20194;-50
2023/09/09 02:54:37;;;;;;;13.57;10.70;;;20.00;99.90;;;;;;5073968;28;20178;-49
2023/09/09 02:57:03;;;;;;;12.77;10.93;;;20.00;99.90;;;;;;5073916;28;20166;-49
2023/09/09 02:59:32;;;;;;;15.35;10.88;;;20.00;99.90;;;;;;5073920;28;20188;-50
2023/09/09 03:01:58;;;;;;;14.80;10.85;;;20.00;99.90;;;;;;5072637;28;20166;-50
2023/09/09 03:04:24;;;;;;;14.98;11.93;;;20.00;99.90;;;;;;5073782;28;20213;-47
2023/09/09 03:06:50;;;;;;;15.60;11.85;;;20.00;99.90;;;;;;5073822;28;20162;-49
2023/09/09 03:09:15;;;;;;;15.60;12.10;;;20.00;99.90;;;;;;5072967;28;20594;-49
2023/09/09 03:11:41;;;;;;;14.73;11.52;;;19.80;99.90;;;;;;5074137;28;20162;-47
2023/09/09 03:14:07;;;;;;;16.20;11.90;;;19.80;99.90;;;;;;5073606;28;20166;-49
2023/09/09 03:16:33;;;;;;;13.93;11.18;;;19.80;99.90;;;;;;5073674;28;20174;-48
2023/09/09 03:18:58;;;;;;;15.30;10.50;;;19.70;99.90;;;;;;5073566;28;20211;-46
2023/09/09 03:21:24;;;;;;;13.02;11.07;;;19.60;99.90;;;;;;5073603;28;20213;-46
2023/09/09 03:23:49;;;;;;;12.75;11.13;;;19.70;99.90;;;;;;5073499;28;20234;-46
2023/09/09 03:26:18;;;;;;;14.02;12.23;;;19.70;99.90;;;;;;5072564;28;20212;-46
2023/09/09 03:28:45;;;;;;;17.13;11.52;;;19.60;99.90;;;;;;5073857;28;20173;-46
2023/09/09 03:31:11;;;;;;;18.17;11.63;;;19.60;99.90;;;;;;5074038;28;20174;-46
2023/09/09 03:33:37;;;;;;;12.85;11.50;;;19.60;99.90;;;;;;5073304;28;20268;-46
2023/09/09 03:36:03;;;;;;;13.90;11.13;;;19.60;99.90;;;;;;5073263;28;20631;-46
2023/09/09 03:38:29;;;;;;;12.90;11.30;;;;;;;;;;5073059;28;20174;-47
2023/09/09 03:40:54;;;;;;;14.30;11.55;;;19.50;99.90;;;;;;5073115;28;20174;-49
2023/09/09 03:43:20;;;;;;;14.25;12.75;;;19.50;99.90;;;;;;5073392;28;20588;-49
2023/09/09 03:45:46;;;;;;;14.25;10.82;;;19.50;99.90;;;;;;5072897;28;20217;-46
2023/09/09 03:48:12;;;;;;;18.95;11.52;;;19.60;99.90;;;;;;5073749;28;20170;-46
2023/09/09 03:50:37;;;;;;;13.40;10.73;;;19.50;99.90;;;;;;5072999;28;20590;-46
2023/09/09 03:53:03;;;;;;;12.73;10.70;;;19.50;99.90;;;;;;5072934;28;20627;-46
2023/09/09 03:55:28;;;;;;;13.27;11.27;;;19.50;99.90;;;;;;5072896;28;20166;-46
2023/09/09 03:57:54;;;;;;;13.75;12.15;;;19.50;99.90;;;;;;5073050;28;20260;-46
2023/09/09 04:00:20;;;;;;;17.15;13.70;;;19.40;99.90;;;;;;5071774;28;20680;-46
2023/09/09 04:02:46;;;;;;;13.50;12.10;;;;;;;;;;5072997;28;20177;-46
2023/09/09 04:05:12;;;;;;;22.15;12.23;;;19.30;99.90;;;;;;5073322;28;20204;-50
2023/09/09 04:07:39;;;;;;;15.25;12.73;;;19.30;99.90;;;;;;5072723;28;20162;-49
2023/09/09 04:10:05;;;;;;;18.08;12.52;;;19.30;99.90;;;;;;5072901;28;20169;-49
2023/09/09 04:12:31;;;;;;;16.50;13.10;;;19.30;99.90;;;;;;5071221;28;20533;-46
2023/09/09 04:14:57;;;;;;;14.30;12.15;;;19.30;99.90;;;;;;5072435;28;20165;-45
2023/09/09 04:17:22;;;;;;;16.00;12.98;;;19.30;99.90;;;;;;5072419;28;20169;-46
2023/09/09 04:19:48;;;;;;;16.40;12.80;;;19.30;99.90;;;;;;5072290;28;20607;-46
2023/09/09 04:22:14;;;;;;;15.00;12.52;;;;;;;;;;5072693;28;20172;-46
2023/09/09 04:24:40;;;;;;;16.45;14.13;;;19.20;99.90;;;;;;5072262;28;20205;-46
2023/09/09 04:27:05;;;;;;;16.30;13.43;;;19.20;99.90;;;;;;5072232;28;20173;-46
2023/09/09 04:29:31;;;;;;;20.25;13.38;;;19.20;99.90;;;;;;5072186;28;20178;-46
2023/09/09 04:31:57;;;;;;;16.88;13.45;;;19.20;99.90;;;;;;5072248;28;20166;-46
2023/09/09 04:34:23;;;;;;;18.20;14.15;;;19.10;99.90;;;;;;5072095;28;20174;-45
2023/09/09 04:36:48;;;;;;;20.80;14.05;;;19.10;99.90;;;;;;5072007;28;20164;-46
2023/09/09 04:39:14;;;;;;;20.38;13.77;;;19.10;99.90;;;;;;5072540;28;20684;-46
2023/09/09 04:41:40;;;;;;;18.60;13.30;;;19.00;99.90;;;;;;5071878;28;20161;-45
2023/09/09 04:44:06;;;;;;;19.05;14.48;;;19.10;99.90;;;;;;5071868;28;20233;-46
2023/09/09 04:46:31;;;;;;;14.90;12.55;;;19.10;99.90;;;;;;5071922;28;20665;-46
2023/09/09 04:48:57;;;;;;;16.88;13.38;;;19.00;99.90;;;;;;5072110;28;20170;-45
2023/09/09 04:51:22;;;;;;;17.60;15.63;;;19.00;99.90;;;;;;5071810;28;20158;-46
2023/09/09 04:53:50;;;;;;;16.95;13.98;;;19.00;99.90;;;;;;5071728;28;20576;-45
2023/09/09 04:56:16;;;;;;;18.67;15.32;;;19.00;99.90;;;;;;5071928;28;20170;-46
2023/09/09 04:58:41;;;;;;;16.02;13.70;;;19.00;99.90;;;;;;5072203;28;20211;-46
2023/09/09 05:01:07;;;;;;;16.73;14.55;;;19.00;99.90;;;;;;5071620;28;20185;-45
2023/09/09 05:03:32;;;;;;;18.42;13.93;;;19.00;99.90;;;;;;5071814;28;20248;-46
2023/09/09 05:05:58;;;;;;;16.17;13.27;;;19.00;99.90;;;;;;5071627;28;20525;-46
2023/09/09 05:08:24;;;;;;;19.30;14.73;;;19.00;99.90;;;;;;5071483;28;20177;-46
2023/09/09 05:10:49;;;;;;;16.75;14.40;;;19.00;99.90;;;;;;5071526;28;20211;-46
2023/09/09 05:13:15;;;;;;;18.33;13.73;;;;;;;;;;5071751;28;20200;-46
2023/09/09 05:15:41;;;;;;;17.45;14.02;;;18.90;99.90;;;;;;5071905;28;20188;-46
2023/09/09 05:18:06;;;;;;;17.77;14.55;;;18.90;99.90;;;;;;5071440;28;20166;-46
2023/09/09 05:20:32;;;;;;;16.95;14.35;;;19.00;99.90;;;;;;5071412;28;20174;-46
2023/09/09 05:22:57;;;;;;;14.90;13.05;;;19.00;99.90;;;;;;5071417;28;20533;-45
2023/09/09 05:25:23;;;;;;;22.58;13.35;;;19.00;99.90;;;;;;5071371;28;20205;-49
2023/09/09 05:27:48;;;;;;;18.77;13.48;;;19.10;99.90;;;;;;5071415;28;20166;-49
2023/09/09 05:30:14;;;;;;;15.95;13.32;;;19.00;99.90;;;;;;5071620;28;20177;-49
2023/09/09 05:32:40;;;;;;;18.73;12.98;;;19.10;99.90;;;;;;5071933;28;20192;-49
2023/09/09 05:35:06;;;;;;;19.52;13.32;;;19.10;99.90;;;;;;5071492;28;20623;-49
2023/09/09 05:37:32;;;;;;;15.15;13.40;;;19.10;99.90;;;;;;5071190;28;20515;-50
2023/09/09 05:39:58;;;;;;;17.00;12.90;;;19.10;99.90;;;;;;5071146;28;20588;-48
2023/09/09 05:42:23;;;;;;;17.77;13.00;;;19.20;99.90;;;;;;5071443;28;20229;-47
2023/09/09 05:44:49;;;;;;;14.88;12.32;;;19.20;99.90;;;;;;5071023;28;20232;-47
2023/09/09 05:47:15;;;;;;;16.83;12.80;;;;;;;;;;5071007;28;20657;-46
2023/09/09 05:49:41;;;;;;;12.45;11.02;;;;;;;;;;5071409;28;20212;-48
2023/09/09 05:52:07;;;;;;;17.60;12.05;;;19.40;99.90;;;;;;5071110;28;20190;-48
2023/09/09 05:54:32;;;;;;;15.73;13.20;;;19.50;99.90;;;;;;5071180;28;20174;-49
2023/09/09 05:56:58;;;;;;;16.60;13.82;;;19.50;99.90;;;;;;5071124;28;20250;-49
2023/09/09 05:59:24;;;;;;;19.73;13.98;;;19.60;99.90;;;;;;5070969;28;20177;-50
2023/09/09 06:01:50;;;;;;;21.90;16.08;;;19.70;99.90;;;;;;5071323;28;20170;-50
2023/09/09 06:04:15;;;;;;;17.55;15.45;;;19.70;99.90;;;;;;5070826;28;20193;-49
2023/09/09 06:06:43;;;;;;;17.38;14.63;;;19.80;99.90;;;;;;5071422;28;20192;-47
2023/09/09 06:09:09;;;;;;;16.80;15.07;;;19.80;99.90;;;;;;5070632;28;20195;-47
2023/09/09 06:11:35;;;;;;;16.90;14.80;;;19.90;99.90;;;;;;5070417;28;20174;-46
2023/09/09 06:14:00;;;;;;;16.73;14.55;;;19.90;99.90;;;;;;5069653;28;20181;-46
2023/09/09 06:16:26;;;;;;;16.70;14.75;;;20.00;99.90;;;;;;5070483;28;20174;-45
2023/09/09 06:18:51;;;;;;;17.42;15.25;;;20.00;99.90;;;;;;5070846;28;20166;-46
2023/09/09 06:21:17;;;;;;;19.23;15.82;;;20.10;99.90;;;;;;5071012;28;20197;-46
2023/09/09 06:23:43;;;;;;;16.42;14.70;;;20.20;99.90;;;;;;5072912;28;20162;-46
2023/09/09 06:26:08;;;;;;;24.98;16.02;;;20.20;99.90;;;;;;5074517;28;20178;-46
2023/09/09 06:28:34;;;;;;;19.08;14.68;;;;;;;;;;5074708;28;21056;-46
2023/09/09 06:31:00;;;;;;;22.20;14.88;;;20.40;99.90;;;;;;5074365;28;20166;-46
2023/09/09 06:33:26;;;;;;;18.05;15.50;;;20.40;99.90;;;;;;5074267;28;20523;-46
2023/09/09 06:35:52;;;;;;;17.02;15.10;;;20.60;99.90;;;;;;5074318;28;20527;-45
2023/09/09 06:38:17;;;;;;;15.38;13.88;;;20.70;99.90;;;;;;5074461;28;20166;-46
2023/09/09 06:40:44;;;;;;;18.08;14.90;;;20.70;99.90;;;;;;5074597;28;20170;-45
2023/09/09 06:43:10;;;;;;;19.63;14.60;;;20.90;99.90;;;;;;5074447;28;20527;-46
2023/09/09 06:45:35;;;;;;;16.35;12.98;;;20.90;99.90;;;;;;5073906;28;20224;-46
2023/09/09 06:48:03;;;;;;;14.27;12.77;;;21.10;99.90;;;;;;5074136;28;20170;-46
2023/09/09 06:50:28;;;;;;;17.15;13.93;;;21.10;99.90;;;;;;5074024;28;20509;-46
2023/09/09 06:52:54;;;;;;;18.50;13.23;;;21.20;99.90;;;;;;5074087;28;20170;-45
2023/09/09 06:55:19;;;;;;;14.82;13.10;;;21.30;99.90;;;;;;5073982;28;20557;-46
2023/09/09 06:57:45;;;;;;;14.82;12.45;;;21.50;99.90;;;;;;5074000;28;20715;-46
2023/09/09 07:00:11;;;;;;;16.77;13.38;;;21.60;99.90;;;;;;5074364;28;20651;-46
2023/09/09 07:02:37;;;;;;;14.98;12.27;;;21.70;99.90;;;;;;5073784;28;20205;-46
2023/09/09 07:05:03;;;;;;;13.20;11.77;;;21.70;99.90;;;;;;5073763;28;20233;-45
2023/09/09 07:07:29;;;;;;;13.82;11.20;;;;;;;;;;5074024;28;20529;-47
2023/09/09 07:09:54;;;;;;;17.13;11.57;;;21.90;99.90;;;;;;5073775;28;20253;-46
2023/09/09 07:12:20;;;;;;;18.02;12.35;;;22.10;99.90;;;;;;5073899;28;20170;-46
2023/09/09 07:14:45;;;;;;;14.10;11.85;;;22.20;99.90;;;;;;5073715;28;20651;-46
2023/09/09 07:17:11;;;;;;;15.93;12.57;;;22.20;99.90;;;;;;5074111;28;20196;-45
2023/09/09 07:19:37;;;;;;;14.98;11.80;;;22.40;99.90;;;;;;5073551;28;20181;-45
2023/09/09 07:22:02;;;;;;;13.93;11.88;;;22.50;99.90;;;;;;5073490;28;20162;-45
2023/09/09 07:24:28;;;;;;;15.68;11.70;;;22.60;99.90;;;;;;5073373;28;20238;-46
2023/09/09 07:26:54;;;;;;;14.63;12.73;;;;;;;;;;5073399;28;20658;-45
2023/09/09 07:29:20;;;;;;;16.08;12.10;;;22.90;99.90;;;;;;5073407;28;20170;-46
2023/09/09 07:31:46;;;;;;;13.50;12.05;;;23.00;99.90;;;;;;5073429;28;20168;-45
2023/09/09 07:34:11;;;;;;;15.60;12.80;;;23.10;99.90;;;;;;5073544;28;20170;-46
2023/09/09 07:36:37;;;;;;;19.45;13.65;;;23.10;99.90;;;;;;5073251;28;20219;-45
2023/09/09 07:39:03;;;;;;;15.32;12.77;;;23.20;99.90;;;;;;5073211;28;20240;-46
2023/09/09 07:41:28;;;;;;;18.52;14.13;;;23.20;99.90;;;;;;5072951;28;20255;-46
2023/09/09 07:43:54;;;;;;;19.73;13.15;;;23.40;99.90;;;;;;5072847;28;20204;-46
2023/09/09 07:46:19;;;;;;;17.33;12.05;;;23.40;99.90;;;;;;5073092;28;20178;-46
2023/09/09 07:48:45;;;;;;;17.33;13.48;;;23.60;99.90;;;;;;5072967;28;20167;-45
2023/09/09 07:51:10;;;;;;;15.70;14.10;;;23.70;99.90;;;;;;5073715;28;20174;-46
2023/09/09 07:53:36;;;;;;;15.90;12.95;;;23.70;99.90;;;;;;5072897;28;20168;-45
2023/09/09 07:56:01;;;;;;;25.75;14.63;;;23.80;99.90;;;;;;5072846;28;20250;-46
2023/09/09 07:58:27;;;;;;;18.80;12.70;;;23.90;99.90;;;;;;5073035;28;20193;-46
2023/09/09 08:01:04;;;;;;;14.20;12.68;;;23.90;99.90;;;;;;5073123;28;20631;-46
2023/09/09 08:03:30;;;;;;;13.63;11.95;;;24.00;99.90;;;;;;5072664;28;20166;-45
2023/09/09 08:06:02;;;;;;;13.57;11.77;;;24.10;99.90;;;;;;5072712;28;20166;-45
2023/09/09 08:08:31;;;;;;;18.17;12.60;;;24.20;99.90;;;;;;5072647;28;20158;-46
2023/09/09 08:10:57;;;;;;;16.27;12.48;;;24.30;99.90;;;;;;5072582;28;20521;-45
2023/09/09 08:13:23;;;;;;;15.43;12.82;;;24.30;99.90;;;;;;5072611;28;20162;-46
2023/09/09 08:15:49;;;;;;;19.02;13.18;;;24.50;99.90;;;;;;5072738;28;20537;-46
2023/09/09 08:18:14;;;;;;;19.48;12.77;;;24.70;99.90;;;;;;5071124;28;20170;-47
2023/09/09 08:20:41;;;;;;;14.98;12.02;;;24.90;99.90;;;;;;5073062;28;20296;-45
2023/09/09 08:23:08;;;;;;;23.95;12.13;;;24.80;99.90;;;;;;5072308;28;20699;-46
2023/09/09 08:25:33;;;;;;;15.57;11.23;;;24.90;99.90;;;;;;5072484;28;20213;-47
2023/09/09 08:28:03;;;;;;;19.65;11.50;;;25.00;99.90;;;;;;5072387;28;20174;-46
2023/09/09 08:30:29;;;;;;;19.13;10.48;;;25.10;99.90;;;;;;5072162;28;20252;-46
2023/09/09 08:32:55;;;;;;;16.40;9.32;;;25.20;99.90;;;;;;5072091;28;20178;-46
2023/09/09 08:35:22;;;;;;;17.83;10.00;;;;;;;;;;5072074;28;20161;-46
2023/09/09 08:37:48;;;;;;;13.90;9.30;;;25.20;99.90;;;;;;5072018;28;20646;-45
2023/09/09 08:40:13;;;;;;;13.30;8.40;;;25.60;99.90;;;;;;5072715;28;20173;-45
2023/09/09 08:42:41;;;;;;;17.75;8.60;;;25.50;99.90;;;;;;5072330;28;20274;-45
2023/09/09 08:45:11;;;;;;;16.02;8.30;;;25.50;99.90;;;;;;5071625;28;20221;-46
2023/09/09 08:47:38;;;;;;;18.33;8.18;;;25.50;99.90;;;;;;5071743;28;20205;-45
2023/09/09 08:50:04;;;;;;;25.83;8.77;;;25.60;99.90;;;;;;5071828;28;20634;-45
2023/09/09 08:52:30;;;;;;;18.35;7.88;;;25.70;99.90;;;;;;5072026;28;20166;-45
2023/09/09 08:54:57;;;;;;;12.88;7.78;;;25.90;99.90;;;;;;5071818;28;20179;-45
2023/09/09 08:57:25;;;;;;;19.50;8.27;;;25.90;99.90;;;;;;5071816;28;20627;-45
2023/09/09 08:59:51;;;;;;;23.60;8.43;;;26.00;99.90;;;;;;5071661;28;20514;-45
2023/09/09 09:02:16;;;;;;;15.45;6.55;;;26.10;99.90;;;;;;5071918;28;20176;-45
2023/09/09 09:04:43;;;;;;;13.52;7.53;;;26.20;99.90;;;;;;5071911;28;20260;-45
2023/09/09 09:07:08;;;;;;;15.00;7.88;;;26.20;99.90;;;;;;5071493;28;20308;-46
2023/09/09 09:09:34;;;;;;;15.90;7.28;;;26.30;99.90;;;;;;5071606;28;20270;-45
2023/09/09 09:12:01;;;;;;;22.75;7.57;;;26.40;99.90;;;;;;5071660;28;20169;-45
2023/09/09 09:14:26;;;;;;;14.82;7.28;;;26.50;99.90;;;;;;5071495;28;20192;-45
2023/09/09 09:16:53;;;;;;;18.63;7.95;;;26.50;99.90;;;;;;5071501;28;20201;-45
2023/09/09 09:19:30;;;;;;;18.77;7.40;;;26.80;99.90;;;;;;5071408;28;20188;-45
2023/09/09 09:21:57;;;;;;;11.85;6.53;;;26.70;99.90;;;;;;5071661;28;20176;-45
2023/09/09 09:24:27;;;;;;;19.73;6.47;;;26.80;99.90;;;;;;5071345;28;20299;-46
2023/09/09 09:26:55;;;;;;;15.90;6.63;;;26.90;99.90;;;;;;5071328;28;20208;-45
2023/09/09 09:29:21;;;;;;;12.98;6.35;;;27.00;99.90;;;;;;5071603;28;20169;-46
2023/09/09 09:31:53;;;;;;;16.83;6.28;;;27.20;99.90;;;;;;5071371;28;20179;-45
2023/09/09 09:34:20;;;;;;;15.25;6.20;;;27.20;99.90;;;;;;5071163;28;20161;-45
2023/09/09 09:36:46;;;;;;;13.02;6.68;;;27.30;99.90;;;;;;5071555;28;20528;-46
2023/09/09 09:39:12;;;;;;;19.25;5.95;;;;;;;;;;5071938;28;20169;-45
2023/09/09 09:41:39;;;;;;;20.27;6.32;;;27.50;99.90;;;;;;5071108;28;20173;-45
2023/09/09 09:44:16;;;;;;;17.30;6.15;;;27.50;99.90;;;;;;5071195;28;20204;-45
2023/09/09 09:46:41;;;;;;;12.13;6.55;;;27.50;99.90;;;;;;5071932;28;20180;-45
2023/09/09 09:49:08;;;;;;;16.30;6.03;;;27.80;99.90;;;;;;5071337;28;20166;-45
2023/09/09 09:51:43;;;;;;;15.45;6.00;;;27.90;99.90;;;;;;5071062;28;20184;-46
2023/09/09 09:54:09;;;;;;;15.75;5.38;;;27.90;99.90;;;;;;5071692;28;20172;-45
2023/09/09 09:56:38;;;;;;;20.27;6.00;;;28.00;99.90;;;;;;5070797;28;20523;-47
2023/09/09 09:59:04;;;;;;;14.95;5.75;;;28.10;99.90;;;;;;5073303;28;20169;-46
2023/09/09 10:01:30;;;;;;;17.17;6.10;;;28.20;99.90;;;;;;5075031;28;20215;-45
2023/09/09 10:04:04;;;;;;;19.88;6.40;;;28.10;99.90;;;;;;5074862;28;20200;-46
2023/09/09 10:06:33;;;;;;;17.50;5.68;;;28.30;99.90;;;;;;5074993;28;20238;-45
2023/09/09 10:09:37;;;;;;;13.40;5.22;;;28.30;99.90;;;;;;5074710;28;20169;-45
2023/09/09 10:12:27;;;;;;;16.48;5.63;;;28.50;99.90;;;;;;5052700;28;20170;-46
2023/09/09 10:14:53;;;;;;;14.35;5.65;;;;;;;;;;5073652;28;20623;-45
2023/09/09 10:17:22;;;;;;;19.08;5.20;;;28.60;99.90;;;;;;5074492;28;20193;-46
2023/09/09 10:19:49;;;;;;;17.02;4.80;;;28.60;99.90;;;;;;5074926;28;20162;-45
2023/09/09 10:22:15;;;;;;;17.67;5.68;;;28.90;99.90;;;;;;5074709;28;20175;-45
2023/09/09 10:24:44;;;;;;;15.52;6.10;;;29.00;99.90;;;;;;5074874;28;20684;-45
2023/09/09 10:27:11;;;;;;;13.32;6.10;;;29.10;99.90;;;;;;5075022;28;20173;-45
2023/09/09 10:29:38;;;;;;;21.63;5.43;;;29.10;99.90;;;;;;5074478;28;20166;-45
2023/09/09 10:32:05;;;;;;;21.90;5.35;;;29.20;99.90;;;;;;5074628;28;20754;-46
2023/09/09 10:34:33;;;;;;;12.40;5.05;;;29.20;99.90;;;;;;5074440;28;20686;-45
2023/09/09 10:37:00;;;;;;;14.20;5.90;;;29.30;99.90;;;;;;5074332;28;20170;-45
2023/09/09 10:39:26;;;;;;;16.70;5.47;;;29.50;99.90;;;;;;5074323;28;20538;-46
2023/09/09 10:41:53;;;;;;;18.90;5.95;;;29.50;99.90;;;;;;5074285;28;20161;-46
2023/09/09 10:44:19;;;;;;;17.55;6.07;;;29.30;99.90;;;;;;5074023;28;20221;-45
2023/09/09 10:46:45;;;;;;;17.70;5.78;;;29.40;99.90;;;;;;5074197;28;20646;-46
2023/09/09 10:49:16;;;;;;;15.00;5.97;;;29.50;99.90;;;;;;5074530;28;20166;-45
2023/09/09 10:51:48;;;;;;;15.60;5.55;;;29.50;99.90;;;;;;5074770;28;20177;-45
2023/09/09 10:54:14;;;;;;;19.30;5.82;;;29.60;99.90;;;;;;5073979;28;20658;-45
2023/09/09 10:56:48;;;;;;;17.77;5.88;;;29.70;99.90;;;;;;5074482;28;20177;-46
2023/09/09 10:59:20;;;;;;;16.77;5.38;;;29.80;99.90;;;;;;5074254;28;20173;-46
2023/09/09 11:01:48;;;;;;;21.50;4.97;;;29.90;99.90;;;;;;5074219;28;20178;-45
2023/09/09 11:04:22;;;;;;;20.27;5.53;;;30.10;99.90;;;;;;5073858;28;20318;-45
2023/09/09 11:07:07;;;;;;;21.55;5.70;;;30.10;99.90;;;;;;5073920;28;20200;-45
2023/09/09 11:09:34;;;;;;;13.80;5.03;;;30.10;99.90;;;;;;5073249;28;20853;-46
2023/09/09 11:11:59;;;;;;;18.58;6.10;;;30.10;99.90;;;;;;5073778;28;20650;-46
2023/09/09 11:14:31;;;;;;;19.17;5.57;;;30.10;99.90;;;;;;5073536;28;20174;-48
2023/09/09 11:16:57;;;;;;;11.75;4.80;;;30.10;99.90;;;;;;5073634;28;20165;-45
2023/09/09 11:19:24;;;;;;;19.08;5.22;;;30.10;99.90;;;;;;5073086;28;20196;-48
2023/09/09 11:21:51;;;;;;;23.45;6.28;;;30.20;99.90;;;;;;5073488;28;20170;-45
2023/09/09 11:24:17;;;;;;;18.77;5.40;;;30.10;99.90;;;;;;5070173;28;20674;-46
2023/09/09 11:26:49;;;;;;;13.18;5.03;;;30.20;99.90;;;;;;5072920;28;20177;-47
2023/09/09 11:29:16;;;;;;;16.55;5.60;;;30.40;99.90;;;;;;5072928;28;20262;-48
2023/09/09 11:31:42;;;;;;;21.77;6.40;;;30.20;99.90;;;;;;5073513;28;20170;-45
2023/09/09 11:34:08;;;;;;;11.65;4.88;;;30.10;99.90;;;;;;5072993;28;20169;-46
2023/09/09 11:36:33;;;;;;;15.02;5.68;;;30.10;99.90;;;;;;5073067;28;20252;-46
2023/09/09 11:39:00;;;;;;;14.98;5.88;;;30.30;99.90;;;;;;5073230;28;20177;-45
2023/09/09 11:41:31;;;;;;;14.57;5.28;;;30.40;99.90;;;;;;5073075;28;20167;-46
2023/09/09 11:44:02;;;;;;;10.90;4.70;;;30.30;99.90;;;;;;5072869;28;20219;-45
2023/09/09 11:46:41;;;;;;;14.88;5.22;;;30.40;99.90;;;;;;5072874;28;20177;-46
2023/09/09 11:49:09;;;;;;;19.52;5.30;;;30.40;99.90;;;;;;5073239;28;20170;-46
2023/09/09 11:51:35;;;;;;;11.18;5.20;;;30.50;99.90;;;;;;5072976;28;20165;-46
2023/09/09 11:54:02;;;;;;;18.08;5.75;;;30.50;99.90;;;;;;5072983;28;20176;-46
2023/09/09 11:56:29;;;;;;;15.50;5.85;;;30.50;99.90;;;;;;5072884;28;20618;-45
2023/09/09 11:58:55;;;;;;;11.02;5.07;;;30.50;99.90;;;;;;5073079;28;20613;-46
2023/09/09 12:01:22;;;;;;;13.13;5.22;;;30.50;99.90;;;;;;5072804;28;20197;-45
2023/09/09 12:03:49;;;;;;;14.10;5.70;;;30.50;99.90;;;;;;5072579;28;20166;-45
2023/09/09 12:06:17;;;;;;;13.07;4.75;;;30.70;99.90;;;;;;5072923;28;20181;-46
2023/09/09 12:08:43;;;;;;;13.02;5.65;;;;;;;;;;5072967;28;20273;-45
2023/09/09 12:11:12;;;;;;;13.95;6.38;;;30.50;99.90;;;;;;5072992;28;20172;-45
2023/09/09 12:13:38;;;;;;;17.35;5.35;;;30.60;99.90;;;;;;5105245;28;20219;-46
2023/09/09 12:16:08;;;;;;;18.55;6.00;;;30.80;99.90;;;;;;5072294;28;20236;-45
2023/09/09 12:18:34;;;;;;;19.33;5.97;;;30.80;99.90;;;;;;5072250;28;20200;-45
2023/09/09 12:20:59;;;;;;;19.65;5.65;;;30.70;99.90;;;;;;5071257;28;20193;-46
2023/09/09 12:23:27;;;;;;;14.48;6.05;;;30.60;99.90;;;;;;5072195;28;20170;-46
2023/09/09 12:26:11;;;;;;;14.50;5.43;;;30.70;99.90;;;;;;5070598;28;20615;-48
2023/09/09 12:28:37;;;;;;;16.30;5.22;;;30.80;99.90;;;;;;5071927;28;20634;-48
2023/09/09 12:31:03;;;;;;;17.58;5.18;;;30.90;99.90;;;;;;5104397;28;20192;-49
2023/09/09 12:33:40;;;;;;;17.05;5.63;;;31.10;99.90;;;;;;5070595;28;20165;-48